Time;durP1;ratioP1;P1;durP2;ratioP2;P2;SDS_P1;SDS_P2;PMS_P1;PMS_P2;Temp;Humidity;BMP_temperature;BMP_pressure;BME280_temperature;BME280_humidity;BME280_pressure;Samples;Min_cycle;Max_cycle;Signal;HPM_P1;HPM_P2
2022/09/25 00:01:20;;;;;;;9.52;3.20;;;;;;;14.22;53.69;101407.06;7398274;19;20003;-57
2022/09/25 00:03:46;;;;;;;10.15;3.20;;;;;;;14.27;53.76;101405.22;7398321;19;20074;-58
2022/09/25 00:06:20;;;;;;;10.45;3.40;;;;;;;14.22;53.63;101409.00;7397752;19;20339;-57
2022/09/25 00:08:46;;;;;;;10.50;3.05;;;;;;;14.20;53.92;101405.84;7393220;19;20017;-58
2022/09/25 00:11:18;;;;;;;14.55;3.70;;;;;;;14.16;54.04;101410.41;7397371;19;20007;-58
2022/09/25 00:13:44;;;;;;;10.35;3.05;;;;;;;14.15;54.05;101417.84;7397634;19;20005;-57
2022/09/25 00:16:13;;;;;;;9.15;2.95;;;;;;;14.17;53.83;101414.75;7396751;19;20003;-58
2022/09/25 00:21:28;;;;;;;9.35;2.60;;;;;;;14.16;53.94;101404.91;7396991;19;20593;-57
2022/09/25 00:23:53;;;;;;;12.43;3.10;;;;;;;14.19;53.98;101401.47;7397053;19;20015;-57
2022/09/25 00:26:19;;;;;;;9.10;3.75;;;;;;;14.22;53.79;101403.53;7395251;19;20010;-57
2022/09/25 00:28:45;;;;;;;11.52;3.58;;;;;;;14.29;53.71;101409.19;7392983;19;20026;-57
2022/09/25 00:31:17;;;;;;;11.82;3.38;;;;;;;14.25;53.65;101409.09;7397418;19;19999;-56
2022/09/25 00:33:42;;;;;;;8.75;3.08;;;;;;;14.22;53.86;101400.78;7396793;19;20482;-57
2022/09/25 00:36:09;;;;;;;12.32;3.33;;;;;;;14.23;53.95;101405.13;7393019;19;19999;-56
2022/09/25 00:38:36;;;;;;;12.27;3.40;;;;;;;14.21;53.99;101402.75;7394273;19;20013;-57
2022/09/25 00:41:04;;;;;;;11.20;3.33;;;;;;;14.18;54.00;101414.41;7394599;19;20001;-57
2022/09/25 00:43:43;;;;;;;11.85;3.22;;;;;;;14.20;54.16;101401.13;7394653;19;20002;-57
2022/09/25 00:46:18;;;;;;;11.07;3.83;;;;;;;14.22;54.06;101401.56;7394262;19;19994;-57
2022/09/25 00:48:50;;;;;;;10.82;3.20;;;;;;;14.23;54.11;101403.19;7394704;19;20009;-57
2022/09/25 00:51:19;;;;;;;11.13;3.67;;;;;;;14.19;54.06;101402.25;7395525;19;19999;-59
2022/09/25 00:53:45;;;;;;;12.73;4.10;;;;;;;14.13;54.29;101409.19;7393837;19;20355;-57
2022/09/25 00:56:12;;;;;;;13.07;4.20;;;;;;;14.14;54.19;101402.53;7397602;19;19987;-57
2022/09/25 00:58:40;;;;;;;13.32;3.75;;;;;;;14.25;54.00;101405.56;7393715;19;20363;-57
2022/09/25 01:01:07;;;;;;;16.83;3.88;;;;;;;14.21;54.22;101407.41;7393474;19;20003;-57
2022/09/25 01:03:32;;;;;;;15.20;4.55;;;;;;;14.14;54.51;101415.47;7396147;19;20103;-57
2022/09/25 01:05:59;;;;;;;10.50;3.42;;;;;;;14.09;54.69;101412.97;7393996;19;20005;-57
2022/09/25 01:08:27;;;;;;;12.27;3.70;;;;;;;14.17;54.29;101417.50;7392627;19;20079;-57
2022/09/25 01:10:53;;;;;;;14.90;3.78;;;;;;;14.20;54.35;101409.38;7393924;19;20335;-57
2022/09/25 01:13:19;;;;;;;10.20;3.47;;;;;;;14.24;54.10;101413.03;7394598;19;20013;-57
2022/09/25 01:15:55;;;;;;;14.10;4.05;;;;;;;14.22;54.08;101406.28;7394379;19;20593;-58
2022/09/25 01:18:45;;;;;;;13.75;4.00;;;;;;;14.20;54.19;101406.63;7392187;19;19994;-57
2022/09/25 01:21:11;;;;;;;12.57;4.53;;;;;;;14.23;54.04;101405.91;7393669;19;20078;-57
2022/09/25 01:24:11;;;;;;;10.65;3.33;;;;;;;14.20;54.29;101405.84;7394334;19;20509;-57
2022/09/25 01:26:45;;;;;;;13.40;4.28;;;;;;;14.21;54.30;101402.75;7393125;19;19999;-57
2022/09/25 01:29:29;;;;;;;11.82;4.07;;;;;;;14.26;54.09;101396.16;7391613;19;20054;-57
2022/09/25 01:32:17;;;;;;;16.42;4.88;;;;;;;14.27;54.10;101400.53;7395624;19;20488;-57
2022/09/25 01:34:58;;;;;;;13.82;5.35;;;;;;;14.25;54.30;101400.09;7393303;19;20002;-57
2022/09/25 01:37:51;;;;;;;13.82;4.65;;;;;;;14.27;54.19;101397.78;7392232;19;20306;-57
2022/09/25 01:40:20;;;;;;;16.42;4.40;;;;;;;14.27;54.22;101406.00;7394878;19;20412;-57
2022/09/25 01:43:10;;;;;;;14.40;5.13;;;;;;;14.20;54.71;101403.09;7395341;19;20010;-56
2022/09/25 01:45:42;;;;;;;14.48;4.95;;;;;;;14.24;54.28;101406.72;7395960;19;20010;-56
2022/09/25 01:48:09;;;;;;;13.93;5.00;;;;;;;14.36;54.21;101403.91;7396847;19;20007;-56
2022/09/25 01:50:49;;;;;;;15.25;5.53;;;;;;;14.37;54.30;101399.22;7397647;19;20006;-56
2022/09/25 01:53:22;;;;;;;14.20;5.40;;;;;;;14.29;54.50;101402.91;7396475;19;20490;-57
2022/09/25 01:56:03;;;;;;;15.32;5.43;;;;;;;14.30;54.35;101399.81;7394536;19;20007;-57
2022/09/25 01:58:34;;;;;;;15.02;5.40;;;;;;;14.30;54.31;101408.06;7396142;19;20070;-55
2022/09/25 02:01:23;;;;;;;12.43;4.90;;;;;;;14.30;54.56;101401.78;7397186;19;20013;-57
2022/09/25 02:04:05;;;;;;;14.23;5.28;;;;;;;14.32;54.42;101403.00;7395352;19;20007;-56
2022/09/25 02:06:32;;;;;;;13.25;4.80;;;;;;;14.36;54.37;101403.91;7396501;19;20014;-56
2022/09/25 02:09:12;;;;;;;13.48;4.90;;;;;;;14.33;54.65;101401.88;7395673;19;20006;-56
2022/09/25 02:11:53;;;;;;;15.63;4.75;;;;;;;14.26;54.41;101407.16;7395267;19;20089;-56
2022/09/25 02:14:26;;;;;;;12.80;4.30;;;;;;;14.26;54.51;101404.41;7397267;19;20007;-55
2022/09/25 02:16:55;;;;;;;13.38;4.07;;;;;;;14.27;54.15;101406.00;7394053;19;20034;-56
2022/09/25 02:22:21;;;;;;;12.73;3.88;;;;;;;14.25;54.62;101408.31;7396652;19;20021;-56
2022/09/25 02:24:55;;;;;;;12.68;4.10;;;;;;;14.26;54.42;101415.38;7397125;19;20007;-55
2022/09/25 02:27:23;;;;;;;13.63;3.35;;;;;;;14.30;54.45;101407.28;7394052;19;20002;-56
2022/09/25 02:29:49;;;;;;;9.95;3.03;;;;;;;14.30;54.42;101399.81;7394699;19;20009;-56
2022/09/25 02:32:18;;;;;;;11.70;3.42;;;;;;;14.33;54.05;101404.63;7394171;19;20010;-56
2022/09/25 02:34:44;;;;;;;11.38;3.55;;;;;;;14.31;53.94;101400.59;7396906;19;20034;-56
2022/09/25 02:37:15;;;;;;;10.43;3.00;;;;;;;14.25;54.26;101397.34;7393887;19;20006;-56
2022/09/25 02:39:44;;;;;;;12.48;3.25;;;;;;;14.26;54.45;101404.41;7389692;19;20067;-56
2022/09/25 02:42:18;;;;;;;12.88;3.20;;;;;;;14.30;54.20;101402.56;7365745;19;19999;-56
2022/09/25 02:45:19;;;;;;;12.10;2.72;;;;;;;14.32;54.22;101402.22;7390987;19;19999;-58
2022/09/25 02:48:12;;;;;;;11.70;2.80;;;;;;;14.34;54.33;101394.41;7391849;19;20098;-56
2022/09/25 02:50:45;;;;;;;11.73;2.67;;;;;;;14.26;54.39;101393.41;7392576;19;19995;-56
2022/09/25 02:53:41;;;;;;;8.90;2.88;;;;;;;14.31;54.38;101398.69;7391738;19;20006;-56
2022/09/25 02:56:18;;;;;;;12.55;2.45;;;;;;;14.37;54.52;101397.25;7392101;19;19987;-56
2022/09/25 02:58:51;;;;;;;12.02;2.97;;;;;;;14.31;54.36;101395.94;7389573;19;20450;-56
2022/09/25 03:01:21;;;;;;;9.23;2.95;;;;;;;14.35;54.36;101398.78;7392793;19;19998;-55
2022/09/25 03:03:50;;;;;;;9.98;2.70;;;;;;;14.38;54.07;101390.63;7390896;19;19998;-56
2022/09/25 03:06:16;;;;;;;13.55;3.53;;;;;;;14.40;54.33;101399.28;7391574;19;20007;-56
2022/09/25 03:08:50;;;;;;;10.70;2.60;;;;;;;14.41;54.25;101406.41;7390175;19;20023;-56
2022/09/25 03:11:18;;;;;;;14.27;3.17;;;;;;;14.32;54.62;101396.72;7392335;19;20058;-56
2022/09/25 03:13:45;;;;;;;12.70;2.92;;;;;;;14.32;54.62;101403.00;7391320;19;20063;-56
2022/09/25 03:16:13;;;;;;;13.07;2.90;;;;;;;14.30;54.48;101394.31;7390503;19;19998;-57
2022/09/25 03:18:39;;;;;;;14.35;3.30;;;;;;;14.32;54.45;101397.50;7389271;19;20518;-56
2022/09/25 03:21:05;;;;;;;14.82;3.20;;;;;;;14.28;54.51;101399.38;7391661;19;19991;-56
2022/09/25 03:23:31;;;;;;;18.38;3.08;;;;;;;14.29;54.70;101392.72;7391585;19;20002;-57
2022/09/25 03:25:57;;;;;;;13.63;3.10;;;;;;;14.27;54.37;101389.53;7390741;19;20009;-56
2022/09/25 03:28:23;;;;;;;10.13;2.65;;;;;;;14.27;54.61;101391.50;7389247;19;20010;-56
2022/09/25 03:30:57;;;;;;;14.38;2.80;;;;;;;14.23;54.61;101385.91;7393441;19;20015;-56
2022/09/25 03:33:23;;;;;;;12.43;2.85;;;;;;;14.18;54.52;101395.19;7394231;19;20469;-56
2022/09/25 03:35:59;;;;;;;15.57;3.35;;;;;;;14.23;54.68;101397.69;7393555;19;20032;-56
2022/09/25 03:38:25;;;;;;;7.32;2.28;;;;;;;14.23;54.74;101389.44;7392030;19;20022;-56
2022/09/25 03:40:50;;;;;;;11.15;3.25;;;;;;;14.23;54.53;101394.16;7393643;19;20013;-56
2022/09/25 03:43:15;;;;;;;14.80;2.95;;;;;;;14.31;54.33;101387.69;7394504;19;20003;-55
2022/09/25 03:45:41;;;;;;;10.65;2.30;;;;;;;14.24;54.61;101395.72;7392109;19;20010;-55
2022/09/25 03:48:06;;;;;;;10.88;2.50;;;;;;;14.22;54.75;101393.34;7389436;19;20037;-55
2022/09/25 03:50:32;;;;;;;9.80;2.40;;;;;;;14.22;54.59;101387.06;7387210;19;20442;-56
2022/09/25 03:52:57;;;;;;;11.98;3.45;;;;;;;14.25;54.44;101387.13;7389066;19;20312;-56
2022/09/25 03:55:24;;;;;;;9.60;2.13;;;;;;;14.19;54.68;101387.75;7391903;19;20007;-55
2022/09/25 03:57:50;;;;;;;14.18;2.85;;;;;;;14.18;54.67;101388.91;7388700;19;20031;-55
2022/09/25 04:00:16;;;;;;;12.90;2.70;;;;;;;14.15;54.90;101386.88;7388431;19;20002;-56
2022/09/25 04:02:42;;;;;;;17.67;3.63;;;;;;;14.10;54.78;101385.19;7389258;19;20470;-56
2022/09/25 04:05:08;;;;;;;10.25;2.40;;;;;;;14.06;54.70;101379.59;7389792;19;20066;-56
2022/09/25 04:07:34;;;;;;;10.57;2.10;;;;;;;14.09;54.65;101382.78;7388616;19;20006;-56
2022/09/25 04:10:00;;;;;;;11.35;2.92;;;;;;;14.10;54.72;101381.63;7388941;19;20464;-56
2022/09/25 04:12:25;;;;;;;13.15;2.53;;;;;;;14.12;54.64;101377.38;7389075;19;20013;-56
2022/09/25 04:14:51;;;;;;;17.38;2.90;;;;;;;14.09;54.64;101385.53;7390138;19;20003;-56
2022/09/25 04:17:17;;;;;;;9.80;2.40;;;;;;;14.00;54.66;101377.47;7387210;19;19998;-56
2022/09/25 04:19:42;;;;;;;8.35;2.35;;;;;;;13.96;54.86;101373.81;7386303;19;20454;-56
2022/09/25 04:22:08;;;;;;;10.70;3.03;;;;;;;13.95;54.99;101378.50;7389447;19;20002;-56
2022/09/25 04:24:49;;;;;;;11.07;2.70;;;;;;;13.94;54.77;101376.88;7389061;19;20006;-56
2022/09/25 04:27:17;;;;;;;12.85;2.30;;;;;;;13.91;54.67;101372.13;7388385;19;20042;-56
2022/09/25 04:29:44;;;;;;;13.52;2.38;;;;;;;13.87;54.81;101382.19;7386680;19;20042;-56
2022/09/25 04:34:53;;;;;;;;;;;;;;;13.95;54.56;101388.69;7390288;19;20101;-57
2022/09/25 04:37:22;;;;;;;12.80;2.35;;;;;;;13.99;54.08;101384.09;7386421;19;20269;-56
2022/09/25 04:39:47;;;;;;;7.10;1.90;;;;;;;13.99;54.25;101390.34;7387070;19;20003;-56
2022/09/25 04:42:14;;;;;;;14.18;2.30;;;;;;;14.01;54.22;101390.00;7386949;19;19998;-56
2022/09/25 04:44:39;;;;;;;11.75;2.47;;;;;;;14.04;53.84;101392.88;7395062;19;20027;-57
2022/09/25 04:47:05;;;;;;;9.88;2.15;;;;;;;14.07;53.92;101386.66;7394029;19;20009;-57
2022/09/25 04:49:30;;;;;;;8.65;2.60;;;;;;;14.10;53.79;101387.13;7392046;19;20015;-56
2022/09/25 04:51:56;;;;;;;11.27;2.28;;;;;;;14.01;54.01;101374.38;7394346;19;20005;-56
2022/09/25 04:54:21;;;;;;;11.00;2.47;;;;;;;13.93;54.32;101386.28;7395752;19;19997;-56
2022/09/25 04:56:47;;;;;;;6.55;1.90;;;;;;;13.87;54.46;101382.97;7397187;19;19999;-57
2022/09/25 04:59:15;;;;;;;11.10;2.67;;;;;;;13.86;54.48;101386.06;7393206;19;20006;-56
2022/09/25 05:01:40;;;;;;;8.65;2.30;;;;;;;13.83;54.50;101378.56;7395200;19;20465;-56
2022/09/25 05:04:06;;;;;;;12.57;2.60;;;;;;;13.79;54.34;101380.38;7395588;19;19994;-56
2022/09/25 05:06:31;;;;;;;8.65;2.38;;;;;;;13.75;54.40;101376.75;7393130;19;20017;-56
2022/09/25 05:08:58;;;;;;;7.30;2.35;;;;;;;13.74;54.45;101383.38;7393541;19;19998;-56
2022/09/25 05:11:24;;;;;;;12.50;2.50;;;;;;;13.75;54.44;101379.47;7396144;19;20019;-56
2022/09/25 05:13:50;;;;;;;9.82;2.70;;;;;;;13.73;54.45;101381.75;7393736;19;20345;-56
2022/09/25 05:16:16;;;;;;;10.82;3.15;;;;;;;13.64;54.51;101379.97;7393827;19;20007;-56
2022/09/25 05:18:41;;;;;;;10.13;2.42;;;;;;;13.66;54.35;101372.19;7393229;19;20416;-56
2022/09/25 05:21:07;;;;;;;9.30;2.72;;;;;;;13.65;54.40;101376.06;7395167;19;20425;-55
2022/09/25 05:23:32;;;;;;;7.63;2.38;;;;;;;13.64;54.35;101369.00;7392797;19;19994;-56
2022/09/25 05:26:00;;;;;;;11.23;2.83;;;;;;;13.60;54.47;101372.78;7394856;19;20024;-56
2022/09/25 05:28:32;;;;;;;11.32;3.45;;;;;;;13.53;54.66;101373.38;7391870;19;20026;-56
2022/09/25 05:31:02;;;;;;;14.38;3.67;;;;;;;13.56;54.62;101380.09;7395059;19;19990;-60
2022/09/25 05:33:28;;;;;;;11.50;3.80;;;;;;;13.49;54.73;101373.28;7393343;19;19998;-60
2022/09/25 05:35:54;;;;;;;11.07;3.22;;;;;;;13.47;54.76;101374.75;7394061;19;20003;-61
2022/09/25 05:38:19;;;;;;;10.73;3.40;;;;;;;13.48;54.75;101377.16;7392139;19;20020;-61
2022/09/25 05:40:45;;;;;;;12.23;4.43;;;;;;;13.47;54.84;101381.03;7395061;19;20358;-60
2022/09/25 05:43:11;;;;;;;15.85;4.53;;;;;;;13.33;55.25;101381.41;7394483;19;20004;-58
2022/09/25 05:45:36;;;;;;;11.70;3.88;;;;;;;13.35;55.15;101383.03;7395582;19;20315;-59
2022/09/25 05:48:07;;;;;;;17.58;4.55;;;;;;;13.40;55.03;101380.84;7392722;19;20546;-59
2022/09/25 05:50:33;;;;;;;19.13;4.53;;;;;;;13.46;54.84;101384.13;7394473;19;19995;-59
2022/09/25 05:53:04;;;;;;;16.10;3.70;;;;;;;13.42;54.71;101399.69;7394199;19;20006;-59
2022/09/25 05:55:30;;;;;;;16.02;3.80;;;;;;;13.40;54.61;101386.31;7394020;19;20011;-58
2022/09/25 05:58:00;;;;;;;9.80;3.20;;;;;;;13.38;54.57;101390.56;7393769;19;19998;-58
2022/09/25 06:00:26;;;;;;;18.02;3.40;;;;;;;13.42;54.37;101385.97;7392526;19;20003;-59
2022/09/25 06:02:52;;;;;;;9.02;3.10;;;;;;;13.41;54.41;101387.09;7394407;19;20020;-59
2022/09/25 06:05:18;;;;;;;9.43;2.60;;;;;;;13.30;54.21;101389.53;7393485;19;20011;-59
2022/09/25 06:07:43;;;;;;;11.75;2.88;;;;;;;13.25;54.54;101390.56;7392852;19;20002;-59
2022/09/25 06:10:09;;;;;;;10.80;2.97;;;;;;;13.28;54.37;101383.63;7394081;19;20002;-58
2022/09/25 06:12:35;;;;;;;11.55;2.80;;;;;;;13.29;54.26;101396.97;7393422;19;20066;-58
2022/09/25 06:15:00;;;;;;;10.57;3.08;;;;;;;13.21;54.55;101388.88;7393844;19;19995;-58
2022/09/25 06:17:26;;;;;;;11.13;3.05;;;;;;;13.24;54.17;101389.00;7390547;19;20010;-59
2022/09/25 06:19:51;;;;;;;11.10;2.80;;;;;;;13.15;54.44;101386.34;7394549;19;20461;-58
2022/09/25 06:22:17;;;;;;;9.68;3.15;;;;;;;13.26;54.25;101392.19;7393808;19;19995;-59
2022/09/25 06:24:42;;;;;;;14.15;3.40;;;;;;;13.22;54.16;101391.25;7393158;19;20473;-58
2022/09/25 06:27:08;;;;;;;12.85;3.90;;;;;;;13.15;54.18;101391.06;7392670;19;20010;-59
2022/09/25 06:29:34;;;;;;;11.43;3.58;;;;;;;13.18;54.21;101393.09;7391409;19;20002;-58
2022/09/25 06:32:00;;;;;;;20.50;3.95;;;;;;;13.20;54.19;101399.03;7393350;19;19999;-58
2022/09/25 06:34:27;;;;;;;9.20;3.40;;;;;;;13.17;53.94;101394.25;7393446;19;20005;-58
2022/09/25 06:36:53;;;;;;;7.55;2.85;;;;;;;13.21;54.04;101397.91;7388566;19;20052;-58
2022/09/25 06:39:18;;;;;;;10.63;3.17;;;;;;;13.20;54.10;101399.03;7391519;19;20010;-58
2022/09/25 06:41:44;;;;;;;10.43;3.47;;;;;;;13.24;53.84;101399.97;7393538;19;20463;-58
2022/09/25 06:44:09;;;;;;;13.90;3.72;;;;;;;13.25;53.87;101390.56;7391738;19;20434;-58
2022/09/25 06:46:35;;;;;;;9.43;3.40;;;;;;;13.26;53.94;101394.94;7391207;19;19995;-59
2022/09/25 06:49:01;;;;;;;10.55;3.00;;;;;;;13.27;54.04;101393.75;7389910;19;20002;-58
2022/09/25 06:51:31;;;;;;;9.90;2.90;;;;;;;13.28;53.88;101394.59;7392347;19;19987;-58
2022/09/25 06:53:57;;;;;;;11.82;3.30;;;;;;;13.26;53.86;101386.69;7392308;19;20012;-58
2022/09/25 06:56:23;;;;;;;10.73;3.50;;;;;;;13.29;53.98;101402.47;7396143;19;20003;-58
2022/09/25 06:58:49;;;;;;;24.65;3.45;;;;;;;13.34;53.89;101395.91;7390275;19;20002;-58
2022/09/25 07:01:15;;;;;;;10.05;3.30;;;;;;;13.45;53.72;101393.50;7392571;19;20002;-58
2022/09/25 07:03:43;;;;;;;12.88;3.28;;;;;;;13.47;53.88;101393.97;7391378;19;19994;-58
2022/09/25 07:06:18;;;;;;;8.90;3.33;;;;;;;13.51;53.96;101398.41;7391223;19;20003;-58
2022/09/25 07:08:46;;;;;;;11.80;3.75;;;;;;;13.55;53.91;101398.50;7389432;19;20014;-61
2022/09/25 07:11:23;;;;;;;8.75;3.40;;;;;;;13.68;53.84;101404.75;7389767;19;20081;-59
2022/09/25 07:13:53;;;;;;;13.82;4.10;;;;;;;13.68;53.88;101402.03;7391710;19;19999;-60
2022/09/25 07:16:21;;;;;;;11.43;3.40;;;;;;;13.64;53.99;101404.66;7389134;19;20003;-59
2022/09/25 07:18:47;;;;;;;10.38;3.17;;;;;;;13.76;53.70;101406.56;7390062;19;20332;-59
2022/09/25 07:21:18;;;;;;;10.05;3.30;;;;;;;13.81;53.62;101400.00;7389738;19;20379;-59
2022/09/25 07:23:47;;;;;;;9.10;3.03;;;;;;;13.83;53.99;101406.00;7392375;19;20060;-59
2022/09/25 07:26:21;;;;;;;9.13;3.45;;;;;;;13.86;53.74;101408.03;7390707;19;20465;-60
2022/09/25 07:28:52;;;;;;;9.68;4.03;;;;;;;13.91;53.78;101406.97;7389921;19;20640;-59
2022/09/25 07:31:20;;;;;;;11.23;3.72;;;;;;;13.97;53.79;101409.13;7390283;19;20032;-59
2022/09/25 07:33:46;;;;;;;13.57;3.80;;;;;;;14.01;53.94;101403.72;7391943;19;20026;-59
2022/09/25 07:36:14;;;;;;;8.77;3.63;;;;;;;14.04;53.74;101397.56;7390059;19;20339;-60
2022/09/25 07:38:40;;;;;;;8.80;3.47;;;;;;;14.10;53.79;101406.34;7386625;19;20010;-59
2022/09/25 07:41:09;;;;;;;6.93;2.90;;;;;;;14.15;53.56;101411.56;7390876;19;20014;-60
2022/09/25 07:43:37;;;;;;;11.48;3.22;;;;;;;14.14;53.67;101402.53;7391211;19;20035;-59
2022/09/25 07:46:04;;;;;;;14.25;3.47;;;;;;;14.30;53.48;101405.31;7390963;19;20343;-60
2022/09/25 07:48:29;;;;;;;8.52;3.35;;;;;;;14.23;53.62;101405.13;7388846;19;20425;-60
2022/09/25 07:51:01;;;;;;;11.18;3.40;;;;;;;14.18;53.20;101408.13;7390703;19;20003;-60
2022/09/25 07:53:27;;;;;;;9.60;2.88;;;;;;;14.30;53.15;101404.53;7390701;19;20048;-59
2022/09/25 07:55:58;;;;;;;5.57;2.30;;;;;;;14.31;53.12;101395.94;7392602;19;20010;-60
2022/09/25 07:58:24;;;;;;;10.18;2.50;;;;;;;14.42;52.92;101401.69;7388140;19;20078;-59
2022/09/25 08:00:50;;;;;;;8.77;2.50;;;;;;;14.43;52.80;101397.81;7390328;19;20003;-59
2022/09/25 08:03:16;;;;;;;7.88;2.13;;;;;;;14.49;52.49;101393.63;7390428;19;20342;-60
2022/09/25 08:05:42;;;;;;;8.20;2.72;;;;;;;14.55;52.33;101388.69;7391111;19;20007;-60
2022/09/25 08:08:07;;;;;;;7.95;2.13;;;;;;;14.46;52.68;101396.28;7389023;19;20006;-60
2022/09/25 08:10:33;;;;;;;7.78;1.70;;;;;;;14.51;52.25;101396.84;7389974;19;20015;-60
2022/09/25 08:12:59;;;;;;;6.22;2.20;;;;;;;14.53;52.46;101402.75;7390754;19;20022;-60
2022/09/25 08:15:30;;;;;;;4.70;2.10;;;;;;;14.62;52.45;101403.38;7387473;19;19998;-60
2022/09/25 08:17:56;;;;;;;8.05;1.80;;;;;;;14.71;52.20;101396.91;7391141;19;20397;-61
2022/09/25 08:20:21;;;;;;;8.43;1.95;;;;;;;14.71;51.83;101397.72;7396133;19;19994;-60
2022/09/25 08:22:47;;;;;;;4.80;1.75;;;;;;;14.80;51.61;101395.59;7397493;19;20444;-60
2022/09/25 08:25:12;;;;;;;6.22;1.73;;;;;;;14.85;51.62;101399.25;7397174;19;20006;-60
2022/09/25 08:27:39;;;;;;;5.03;1.70;;;;;;;14.84;51.67;101398.44;7396251;19;20002;-60
2022/09/25 08:30:10;;;;;;;10.73;2.00;;;;;;;14.92;51.69;101396.66;7397187;19;19999;-60
2022/09/25 08:32:36;;;;;;;10.52;2.80;;;;;;;14.98;51.39;101400.75;7397417;19;20003;-60
2022/09/25 08:35:03;;;;;;;7.40;1.80;;;;;;;15.00;51.34;101403.91;7395039;19;20380;-60
2022/09/25 08:37:30;;;;;;;5.93;1.48;;;;;;;14.95;50.99;101401.44;7391113;19;19999;-60
2022/09/25 08:40:00;;;;;;;6.97;1.58;;;;;;;14.92;50.92;101404.91;7397404;19;20017;-61
2022/09/25 08:42:33;;;;;;;7.50;1.60;;;;;;;14.99;50.80;101402.31;7395556;19;20003;-59
2022/09/25 08:50:36;;;;;;;5.45;1.73;;;;;;;15.63;49.82;101407.66;7395096;19;20063;-59
2022/09/25 08:53:16;;;;;;;4.93;1.70;;;;;;;15.74;49.39;101397.69;7396651;19;20011;-59
2022/09/25 08:58:29;;;;;;;8.73;1.80;;;;;;;15.81;49.12;101408.81;7394588;19;19998;-58
2022/09/25 09:00:59;;;;;;;6.40;1.40;;;;;;;15.77;48.72;101402.47;7394318;19;20021;-59
2022/09/25 09:03:29;;;;;;;7.78;1.33;;;;;;;15.86;48.51;101405.78;7395632;19;20022;-58
2022/09/25 09:06:10;;;;;;;6.00;1.30;;;;;;;15.79;47.89;101400.13;7396421;19;20006;-59
2022/09/25 09:08:39;;;;;;;8.63;1.83;;;;;;;15.90;48.23;101406.66;7394241;19;19998;-60
2022/09/25 09:11:11;;;;;;;3.17;1.20;;;;;;;15.82;48.01;101409.63;7396587;19;19999;-60
2022/09/25 09:13:56;;;;;;;5.28;1.10;;;;;;;15.68;48.15;101405.44;7396787;19;19990;-60
2022/09/25 09:16:21;;;;;;;5.43;1.42;;;;;;;15.66;47.96;101404.19;7392688;19;20021;-60
2022/09/25 09:18:48;;;;;;;6.97;1.42;;;;;;;15.68;48.08;101399.13;7394188;19;20422;-60
2022/09/25 09:21:31;;;;;;;4.32;1.10;;;;;;;15.71;47.82;101403.91;7395544;19;20006;-59
2022/09/25 09:24:20;;;;;;;9.10;1.48;;;;;;;15.77;47.99;101401.69;7396371;19;20536;-59
2022/09/25 09:27:16;;;;;;;6.10;1.40;;;;;;;15.76;47.15;101406.38;7391436;19;20533;-60
2022/09/25 09:29:54;;;;;;;6.43;1.50;;;;;;;15.71;47.14;101410.22;7393217;19;20007;-59
2022/09/25 09:32:43;;;;;;;6.95;1.30;;;;;;;15.96;47.03;101409.13;7395161;19;20532;-59
2022/09/25 09:35:24;;;;;;;7.30;1.30;;;;;;;16.07;46.40;101408.16;7396136;19;20002;-59
2022/09/25 09:38:03;;;;;;;7.38;1.30;;;;;;;16.00;46.58;101399.78;7392505;19;20006;-60
2022/09/25 09:40:52;;;;;;;6.93;1.30;;;;;;;15.97;46.64;101413.47;7395607;19;20007;-60
2022/09/25 09:43:31;;;;;;;5.25;1.23;;;;;;;15.98;47.04;101406.78;7394669;19;20420;-59
2022/09/25 09:46:34;;;;;;;6.50;1.10;;;;;;;16.01;45.93;101406.84;7395145;19;19994;-59
2022/09/25 09:49:21;;;;;;;5.05;1.13;;;;;;;15.72;45.69;101400.00;7393370;19;19994;-60
2022/09/25 09:52:09;;;;;;;5.50;1.52;;;;;;;15.84;46.21;101402.59;7395214;19;20003;-60
2022/09/25 09:54:46;;;;;;;7.07;1.10;;;;;;;15.79;46.26;101402.88;7394023;19;19998;-60
2022/09/25 09:57:32;;;;;;;7.15;1.08;;;;;;;15.84;46.19;101396.31;7392324;19;20013;-59
2022/09/25 10:00:04;;;;;;;6.90;1.48;;;;;;;15.86;46.11;101405.00;7394790;19;20632;-59
2022/09/25 10:02:38;;;;;;;5.82;1.20;;;;;;;16.15;45.35;101408.28;7394066;19;19998;-57
2022/09/25 10:05:11;;;;;;;6.57;1.20;;;;;;;16.27;45.48;101408.91;7394984;19;20002;-59
2022/09/25 10:07:40;;;;;;;9.23;1.55;;;;;;;16.18;45.68;101394.56;7393825;19;19998;-59
2022/09/25 10:10:13;;;;;;;6.88;1.42;;;;;;;16.21;45.92;101388.34;7393920;19;20459;-58
2022/09/25 10:12:46;;;;;;;7.15;1.35;;;;;;;16.17;46.12;101393.00;7394869;19;20005;-58
2022/09/25 10:15:35;;;;;;;7.07;1.75;;;;;;;16.10;46.09;101390.13;7394229;19;19998;-60
2022/09/25 10:18:02;;;;;;;7.32;1.40;;;;;;;16.25;45.66;101393.91;7392264;19;20012;-58
2022/09/25 10:20:37;;;;;;;5.15;1.02;;;;;;;16.40;45.44;101390.25;7392903;19;20046;-59
2022/09/25 10:23:04;;;;;;;4.15;1.00;;;;;;;16.44;45.43;101387.56;7393488;19;20001;-59
2022/09/25 10:25:38;;;;;;;3.03;1.27;;;;;;;16.36;45.66;101386.63;7393848;19;20050;-59
2022/09/25 10:28:28;;;;;;;5.20;1.27;;;;;;;16.39;45.18;101394.16;7390216;19;19995;-59
2022/09/25 10:30:56;;;;;;;8.63;1.40;;;;;;;16.33;45.73;101387.38;7393274;19;20007;-61
2022/09/25 10:33:24;;;;;;;6.82;1.55;;;;;;;16.28;46.13;101395.94;7393293;19;19994;-61
2022/09/25 10:35:52;;;;;;;5.93;1.20;;;;;;;16.27;45.70;101386.09;7392650;19;19998;-60
2022/09/25 10:38:26;;;;;;;7.38;1.52;;;;;;;16.21;45.25;101393.84;7390991;19;20415;-60
2022/09/25 10:41:13;;;;;;;6.47;1.35;;;;;;;16.26;45.36;101393.53;7391689;19;20018;-59
2022/09/25 10:44:18;;;;;;;8.27;1.30;;;;;;;16.27;45.21;101392.41;7392191;19;20380;-60
2022/09/25 10:52:14;;;;;;;8.13;1.30;;;;;;;16.27;45.62;101400.66;7392725;19;19999;-60
2022/09/25 10:54:40;;;;;;;6.85;2.30;;;;;;;16.36;45.31;101388.59;7392719;19;20099;-60
2022/09/25 10:57:36;;;;;;;7.32;1.73;;;;;;;16.36;45.77;101394.13;7388796;19;20024;-61
2022/09/25 11:00:17;;;;;;;6.40;1.58;;;;;;;16.14;46.40;101392.94;7392295;19;20002;-60
2022/09/25 11:02:45;;;;;;;8.90;1.80;;;;;;;16.05;46.45;101406.94;7392155;19;20006;-61
2022/09/25 11:05:27;;;;;;;7.50;1.70;;;;;;;15.87;48.11;101396.38;7392572;19;20010;-61
2022/09/25 11:07:56;;;;;;;8.13;1.75;;;;;;;15.48;48.68;101404.59;7390977;19;19999;-60
2022/09/25 11:10:49;;;;;;;7.68;1.42;;;;;;;15.28;50.10;101414.78;7392111;19;20178;-61
2022/09/25 11:13:23;;;;;;;9.82;1.30;;;;;;;15.18;50.18;101412.59;7390640;19;20036;-61
2022/09/25 11:15:55;;;;;;;;;;;;;;;15.20;51.31;101409.44;7392963;19;20009;-61
2022/09/25 11:18:50;;;;;;;8.20;1.90;;;;;;;15.21;50.78;101413.81;7389733;19;20303;-60
2022/09/25 11:21:49;;;;;;;7.28;1.45;;;;;;;15.28;49.99;101408.47;7390311;19;20037;-59
2022/09/25 11:24:28;;;;;;;8.48;1.95;;;;;;;15.46;49.34;101406.91;7389711;19;20010;-59
2022/09/25 11:27:12;;;;;;;7.00;1.48;;;;;;;15.40;49.68;101404.78;7391018;19;20006;-59
2022/09/25 11:29:53;;;;;;;8.15;1.55;;;;;;;15.50;49.47;101399.53;7389580;19;20003;-60
2022/09/25 11:32:28;;;;;;;7.18;1.45;;;;;;;15.54;49.49;101400.38;7390253;19;20010;-59
2022/09/25 11:35:03;;;;;;;7.70;1.45;;;;;;;15.66;49.23;101393.19;7392243;19;20074;-60
2022/09/25 11:37:42;;;;;;;4.50;1.00;;;;;;;15.61;49.58;101388.72;7388310;19;20382;-59
2022/09/25 11:43:19;;;;;;;7.35;1.30;;;;;;;15.65;49.62;101400.66;7390466;19;20611;-59
2022/09/25 11:46:01;;;;;;;5.57;1.42;;;;;;;15.83;49.25;101395.53;7391727;19;20006;-60
2022/09/25 11:48:36;;;;;;;7.10;1.30;;;;;;;15.96;49.23;101398.09;7388463;19;20021;-60
2022/09/25 11:51:38;;;;;;;6.00;1.33;;;;;;;15.92;49.16;101393.31;7389674;19;20001;-60
2022/09/25 11:54:13;;;;;;;6.50;1.70;;;;;;;15.95;49.32;101386.31;7398359;19;19998;-61
2022/09/25 11:57:26;;;;;;;6.32;1.10;;;;;;;15.92;49.00;101385.06;7400614;19;20002;-60
2022/09/25 12:00:16;;;;;;;5.88;1.58;;;;;;;15.99;48.29;101386.38;7397073;19;20481;-60
2022/09/25 12:02:51;;;;;;;8.85;1.65;;;;;;;16.12;48.97;101378.72;7396483;19;20002;-61
2022/09/25 12:05:38;;;;;;;5.88;1.20;;;;;;;15.98;48.66;101380.06;7397077;19;20025;-60
2022/09/25 12:08:14;;;;;;;9.80;1.70;;;;;;;15.88;48.98;101370.44;7397708;19;19990;-60